Time;durP1;ratioP1;P1;durP2;ratioP2;P2;SDS_P1;SDS_P2;PMS_P1;PMS_P2;Temp;Humidity;BMP_temperature;BMP_pressure;BME280_temperature;BME280_humidity;BME280_pressure;Samples;Min_cycle;Max_cycle;Signal;HPM_P1;HPM_P2
2022/09/15 00:00:07;;;;;;;1.95;1.10;;;;;20.90;100558.00;;;;5010211;28;20197;-77
2022/09/15 00:02:35;;;;;;;0.98;0.82;;;;;20.90;100547.00;;;;5007647;28;20197;-76
2022/09/15 00:05:02;;;;;;;2.00;1.02;;;;;20.90;100554.00;;;;5004782;28;20205;-77
2022/09/15 00:07:30;;;;;;;2.13;1.50;;;;;20.90;100547.00;;;;5010450;28;20208;-77
2022/09/15 00:09:57;;;;;;;1.90;1.55;;;;;20.90;100549.00;;;;5011040;28;20205;-77
2022/09/15 00:12:25;;;;;;;3.45;1.95;;;;;20.90;100551.00;;;;5011836;28;20197;-77
2022/09/15 00:14:53;;;;;;;1.67;1.50;;;;;20.90;100546.00;;;;5008221;28;20201;-77
2022/09/15 00:17:21;;;;;;;2.10;1.52;;;;;21.00;100548.00;;;;5006167;28;20233;-77
2022/09/15 00:19:48;;;;;;;2.10;1.88;;;;;21.00;100545.00;;;;5011488;28;20209;-77
2022/09/15 00:22:17;;;;;;;2.45;1.33;;;;;21.00;100545.00;;;;5011011;28;20193;-77
2022/09/15 00:24:44;;;;;;;2.20;1.80;;;;;21.00;100544.00;;;;5011821;28;20201;-77
2022/09/15 00:27:11;;;;;;;2.15;1.75;;;;;21.00;100548.00;;;;5011285;28;20203;-76
2022/09/15 00:29:38;;;;;;;2.45;1.90;;;;;21.00;100545.00;;;;5011018;28;20197;-76
2022/09/15 00:32:07;;;;;;;3.85;1.65;;;;;21.00;100542.00;;;;5009169;28;20228;-77
2022/09/15 00:34:35;;;;;;;2.70;1.90;;;;;21.00;100542.00;;;;5011940;28;20209;-77
2022/09/15 00:37:02;;;;;;;4.95;2.25;;;;;21.00;100544.00;;;;5010654;28;20211;-77
2022/09/15 00:39:29;;;;;;;2.58;1.73;;;;;21.00;100534.00;;;;5011599;28;20280;-77
2022/09/15 00:41:57;;;;;;;3.20;1.80;;;;;21.00;100545.00;;;;5009968;28;20212;-77
2022/09/15 00:44:48;;;;;;;1.55;1.38;;;;;20.90;100545.00;;;;5010636;28;20208;-77
2022/09/15 00:47:17;;;;;;;4.78;2.05;;;;;21.00;100544.00;;;;4991764;28;20653;-77
2022/09/15 00:49:47;;;;;;;2.22;1.90;;;;;21.00;100547.00;;;;5001281;28;20217;-77
2022/09/15 00:52:19;;;;;;;1.90;1.70;;;;;21.00;100545.00;;;;5010078;28;20225;-77
2022/09/15 00:54:52;;;;;;;2.22;1.70;;;;;20.90;100549.00;;;;5006499;28;20204;-77
2022/09/15 00:57:25;;;;;;;2.20;1.73;;;;;21.00;100549.00;;;;4991449;28;20618;-77
2022/09/15 00:59:53;;;;;;;2.72;2.00;;;;;21.00;100543.00;;;;5004542;28;20201;-77
2022/09/15 01:02:23;;;;;;;2.53;1.92;;;;;21.00;100544.00;;;;5014160;28;20556;-77
2022/09/15 01:04:52;;;;;;;2.50;1.88;;;;;21.00;100544.00;;;;5020225;28;20228;-77
2022/09/15 01:07:25;;;;;;;4.40;1.50;;;;;20.90;100536.00;;;;5010338;28;20201;-77
2022/09/15 01:09:55;;;;;;;2.55;1.83;;;;;21.00;100537.00;;;;5009887;28;20674;-77
2022/09/15 01:12:24;;;;;;;1.88;1.67;;;;;21.00;100547.00;;;;5010610;28;20231;-77
2022/09/15 01:14:51;;;;;;;2.83;2.00;;;;;21.00;100543.00;;;;5008342;28;20197;-77
2022/09/15 01:17:29;;;;;;;1.70;1.60;;;;;20.90;100547.00;;;;5010023;28;20204;-77
2022/09/15 01:20:25;;;;;;;3.03;1.90;;;;;20.80;100549.00;;;;5001383;28;20205;-77
2022/09/15 01:23:08;;;;;;;2.13;1.42;;;;;20.90;100552.00;;;;5006807;28;20212;-77
2022/09/15 01:26:00;;;;;;;2.30;1.45;;;;;20.80;100547.00;;;;5006144;28;20201;-77
2022/09/15 01:29:03;;;;;;;1.80;1.60;;;;;20.80;100559.00;;;;5010550;28;21460;-77
2022/09/15 01:33:02;;;;;;;2.97;1.80;;;;;20.80;100547.00;;;;5009913;28;20728;-77
2022/09/15 01:34:29;;;;;;;2.78;2.08;;;;;20.90;100554.00;;;;5010593;28;20303;-77
2022/09/15 01:36:59;;;;;;;2.15;1.90;;;;;20.90;100557.00;;;;5012337;28;20201;-77
2022/09/15 01:39:32;;;;;;;2.40;1.65;;;;;20.80;100550.00;;;;5009984;28;20201;-77
2022/09/15 01:42:02;;;;;;;4.22;1.83;;;;;20.80;100556.00;;;;5006810;28;20201;-77
2022/09/15 01:44:33;;;;;;;2.50;2.00;;;;;20.80;100563.00;;;;5026878;28;20188;-77
2022/09/15 01:47:06;;;;;;;1.58;1.48;;;;;20.80;100568.00;;;;5009238;28;21023;-76
2022/09/15 01:49:39;;;;;;;2.42;1.95;;;;;20.80;100566.00;;;;5009077;28;20543;-77
2022/09/15 01:52:07;;;;;;;1.75;1.50;;;;;20.80;100570.00;;;;5004949;28;20232;-76
2022/09/15 01:54:39;;;;;;;1.73;1.63;;;;;20.80;100570.00;;;;5007398;28;20205;-77
2022/09/15 01:57:06;;;;;;;7.28;2.28;;;;;20.80;100564.00;;;;5006696;28;20229;-77
2022/09/15 01:59:34;;;;;;;3.28;1.70;;;;;20.80;100563.00;;;;5008323;28;20197;-77
2022/09/15 02:02:09;;;;;;;1.73;1.63;;;;;20.70;100558.00;;;;5008231;28;20671;-77
2022/09/15 02:04:45;;;;;;;4.47;2.10;;;;;20.70;100566.00;;;;5005441;28;20215;-77
2022/09/15 02:07:22;;;;;;;1.58;1.42;;;;;20.80;100556.00;;;;4994631;28;21004;-77
2022/09/15 02:09:58;;;;;;;2.78;1.55;;;;;20.80;100557.00;;;;5007733;28;20617;-77
2022/09/15 02:12:32;;;;;;;1.73;1.40;;;;;20.80;100553.00;;;;5008011;28;20239;-77
2022/09/15 02:15:04;;;;;;;2.83;1.83;;;;;20.80;100555.00;;;;5005102;28;20219;-77
2022/09/15 02:17:37;;;;;;;3.60;1.60;;;;;20.80;100557.00;;;;5006739;28;20746;-77
2022/09/15 02:20:14;;;;;;;2.03;1.42;;;;;20.80;100549.00;;;;5004924;28;20201;-77
2022/09/15 02:22:45;;;;;;;2.10;1.60;;;;;20.80;100550.00;;;;5004101;28;20277;-77
2022/09/15 02:25:17;;;;;;;3.08;1.67;;;;;20.80;100554.00;;;;5007458;28;20280;-77
2022/09/15 02:27:49;;;;;;;1.88;1.45;;;;;20.80;100562.00;;;;5009292;28;20697;-77
2022/09/15 02:30:19;;;;;;;1.52;1.42;;;;;20.80;100558.00;;;;5005400;28;20205;-77
2022/09/15 02:32:53;;;;;;;3.47;1.83;;;;;20.80;100563.00;;;;5003908;28;20282;-78
2022/09/15 02:35:20;;;;;;;3.45;1.45;;;;;20.80;100563.00;;;;5007175;28;20291;-77
2022/09/15 02:37:49;;;;;;;2.78;1.40;;;;;20.80;100562.00;;;;5002518;28;20204;-77
2022/09/15 02:40:16;;;;;;;2.50;1.20;;;;;20.80;100559.00;;;;5006872;28;20204;-77
2022/09/15 02:42:53;;;;;;;3.25;1.48;;;;;20.70;100566.00;;;;5006725;28;20201;-77
2022/09/15 02:45:20;;;;;;;1.75;1.23;;;;;20.80;100567.00;;;;5005645;28;20227;-77
2022/09/15 02:47:49;;;;;;;1.70;1.40;;;;;20.70;100569.00;;;;5012610;28;20203;-77
2022/09/15 02:50:17;;;;;;;3.30;1.23;;;;;20.80;100564.00;;;;5007608;28;20247;-77
2022/09/15 02:52:44;;;;;;;1.73;1.20;;;;;20.80;100564.00;;;;5013524;28;20225;-77
2022/09/15 02:55:12;;;;;;;2.10;1.40;;;;;20.80;100564.00;;;;5005640;28;20577;-75
2022/09/15 02:57:39;;;;;;;2.05;1.38;;;;;20.80;100564.00;;;;5007838;28;21067;-76
2022/09/15 03:00:14;;;;;;;3.08;1.25;;;;;20.80;100563.00;;;;5005518;28;20193;-76
2022/09/15 03:02:44;;;;;;;1.73;1.40;;;;;20.80;100567.00;;;;5008325;28;20200;-76
2022/09/15 03:05:14;;;;;;;3.17;1.15;;;;;20.80;100561.00;;;;5006609;28;20208;-76
2022/09/15 03:07:42;;;;;;;2.70;1.13;;;;;20.80;100566.00;;;;5008584;28;20208;-76
2022/09/15 03:10:12;;;;;;;1.67;0.98;;;;;20.80;100573.00;;;;5008898;28;20228;-76
2022/09/15 03:12:40;;;;;;;2.90;1.40;;;;;20.80;100560.00;;;;5006382;28;20232;-76
2022/09/15 03:15:10;;;;;;;2.78;0.95;;;;;20.80;100568.00;;;;5007695;28;20212;-76
2022/09/15 03:17:39;;;;;;;2.13;0.85;;;;;20.80;100562.00;;;;5006954;28;20197;-76
2022/09/15 03:20:09;;;;;;;2.40;1.40;;;;;20.80;100565.00;;;;5004220;28;20298;-76
2022/09/15 03:22:38;;;;;;;1.50;1.23;;;;;20.80;100569.00;;;;5006792;28;20545;-76
2022/09/15 03:25:07;;;;;;;1.10;1.00;;;;;20.80;100569.00;;;;5006636;28;20205;-76
2022/09/15 03:27:35;;;;;;;1.20;1.00;;;;;20.80;100583.00;;;;5020787;28;20183;-76
2022/09/15 03:30:04;;;;;;;3.10;1.55;;;;;20.80;100579.00;;;;5020609;28;20200;-76
2022/09/15 03:32:32;;;;;;;1.30;1.02;;;;;20.80;100587.00;;;;5007539;28;20224;-76
2022/09/15 03:34:59;;;;;;;1.50;1.08;;;;;20.80;100576.00;;;;5008221;28;20247;-76
2022/09/15 03:37:27;;;;;;;1.65;1.08;;;;;20.80;100591.00;;;;5008271;28;20216;-76
2022/09/15 03:39:55;;;;;;;4.60;0.90;;;;;20.80;100593.00;;;;5000584;28;20209;-76
2022/09/15 03:42:23;;;;;;;1.10;0.80;;;;;20.80;100590.00;;;;5010465;28;20204;-76
2022/09/15 03:44:50;;;;;;;3.13;1.05;;;;;20.80;100588.00;;;;5012085;28;20677;-76
2022/09/15 03:47:17;;;;;;;2.33;1.00;;;;;20.80;100595.00;;;;5012589;28;20196;-76
2022/09/15 03:49:45;;;;;;;2.35;0.88;;;;;20.80;100590.00;;;;5012743;28;20204;-76
2022/09/15 03:52:12;;;;;;;1.33;1.02;;;;;20.80;100587.00;;;;5011359;28;20229;-76
2022/09/15 03:54:39;;;;;;;1.58;0.80;;;;;20.80;100594.00;;;;5011291;28;20197;-76
2022/09/15 03:57:08;;;;;;;1.67;1.30;;;;;20.80;100591.00;;;;5004179;28;20245;-76
2022/09/15 03:59:35;;;;;;;2.00;0.98;;;;;20.80;100581.00;;;;5023090;28;20208;-76
2022/09/15 04:02:02;;;;;;;2.20;1.02;;;;;20.80;100587.00;;;;5011632;28;20224;-76
2022/09/15 04:04:30;;;;;;;2.45;0.90;;;;;20.80;100576.00;;;;5011159;28;20212;-76
2022/09/15 04:06:58;;;;;;;1.30;0.90;;;;;20.80;100592.00;;;;5009675;28;20200;-76
2022/09/15 04:09:25;;;;;;;1.50;0.90;;;;;20.80;100579.00;;;;5010418;28;20197;-76
2022/09/15 04:11:52;;;;;;;5.47;1.05;;;;;20.80;100581.00;;;;5009940;28;20232;-76
2022/09/15 04:14:21;;;;;;;1.58;1.02;;;;;20.80;100582.00;;;;5001556;28;20196;-76
2022/09/15 04:16:48;;;;;;;1.33;1.00;;;;;20.80;100583.00;;;;5019245;28;20204;-76
2022/09/15 04:19:16;;;;;;;5.57;1.20;;;;;20.80;100587.00;;;;5013989;28;20205;-76
2022/09/15 04:21:44;;;;;;;3.78;0.90;;;;;20.80;100595.00;;;;5012333;28;20204;-76
2022/09/15 04:24:12;;;;;;;1.08;0.90;;;;;20.80;100590.00;;;;5009322;28;20221;-76
2022/09/15 04:26:39;;;;;;;1.90;0.80;;;;;20.80;100593.00;;;;5010882;28;20208;-76
2022/09/15 04:29:12;;;;;;;1.13;0.68;;;;;20.80;100586.00;;;;5011153;28;20697;-76
2022/09/15 04:31:42;;;;;;;2.22;0.85;;;;;20.80;100578.00;;;;5003831;28;20221;-76
2022/09/15 04:34:09;;;;;;;1.05;0.80;;;;;20.80;100580.00;;;;5011080;28;21012;-76
2022/09/15 04:36:36;;;;;;;1.70;1.02;;;;;20.80;100579.00;;;;5010909;28;20590;-76
2022/09/15 04:39:05;;;;;;;2.28;1.10;;;;;20.80;100583.00;;;;5009860;28;20197;-76
2022/09/15 04:41:33;;;;;;;2.13;1.17;;;;;20.80;100581.00;;;;5011597;28;20209;-76
2022/09/15 04:44:01;;;;;;;1.70;0.90;;;;;20.80;100580.00;;;;5010257;28;20293;-76
2022/09/15 04:46:28;;;;;;;1.00;0.63;;;;;20.80;100575.00;;;;5010865;28;20718;-76
2022/09/15 04:48:57;;;;;;;2.20;1.08;;;;;20.80;100582.00;;;;5007622;28;20216;-76
2022/09/15 04:51:24;;;;;;;0.70;0.50;;;;;20.80;100582.00;;;;5009216;28;20643;-76
2022/09/15 04:53:52;;;;;;;1.38;0.80;;;;;20.80;100583.00;;;;5007486;28;20201;-76
2022/09/15 04:56:21;;;;;;;1.52;0.98;;;;;20.80;100579.00;;;;5009191;28;20721;-76
2022/09/15 04:58:51;;;;;;;1.10;0.80;;;;;20.80;100579.00;;;;5009981;28;20225;-76
2022/09/15 05:01:21;;;;;;;3.00;1.00;;;;;20.80;100578.00;;;;5011977;28;20201;-76
2022/09/15 05:03:48;;;;;;;0.90;0.60;;;;;20.90;100578.00;;;;5016703;28;21366;-76
2022/09/15 05:06:19;;;;;;;1.30;0.63;;;;;20.80;100589.00;;;;5011190;28;20205;-77
2022/09/15 05:08:48;;;;;;;2.53;0.65;;;;;20.90;100593.00;;;;5002777;28;20208;-77
2022/09/15 05:11:16;;;;;;;1.60;0.68;;;;;20.90;100580.00;;;;5001640;28;20201;-77
2022/09/15 05:13:43;;;;;;;1.60;0.60;;;;;20.90;100583.00;;;;5008596;28;20224;-77
2022/09/15 05:16:13;;;;;;;1.77;0.70;;;;;20.90;100583.00;;;;5012385;28;20659;-77
2022/09/15 05:18:41;;;;;;;1.30;0.55;;;;;20.90;100578.00;;;;5007491;28;20618;-76
2022/09/15 05:21:10;;;;;;;1.35;0.50;;;;;20.90;100582.00;;;;4994148;28;20491;-77
2022/09/15 05:23:39;;;;;;;2.45;0.90;;;;;20.90;100577.00;;;;5005530;28;20201;-77
2022/09/15 05:26:08;;;;;;;3.35;0.98;;;;;20.90;100586.00;;;;5004798;28;20396;-77
2022/09/15 05:28:37;;;;;;;1.65;0.55;;;;;20.90;100582.00;;;;5007666;28;20221;-77
2022/09/15 05:31:10;;;;;;;0.90;0.50;;;;;20.90;100587.00;;;;5009181;28;20200;-77
2022/09/15 05:33:38;;;;;;;2.25;0.63;;;;;20.90;100580.00;;;;5004811;28;20225;-78
2022/09/15 05:36:06;;;;;;;1.05;0.50;;;;;20.90;100588.00;;;;5003395;28;20201;-77
2022/09/15 05:38:34;;;;;;;3.42;0.50;;;;;20.90;100586.00;;;;5001638;28;20739;-76
2022/09/15 05:41:10;;;;;;;1.42;0.70;;;;;20.90;100583.00;;;;5007276;28;20201;-77
2022/09/15 05:43:39;;;;;;;1.98;0.50;;;;;20.90;100586.00;;;;5009556;28;20212;-77
2022/09/15 05:46:07;;;;;;;2.20;0.85;;;;;20.90;100586.00;;;;5008465;28;20251;-76
2022/09/15 05:48:35;;;;;;;0.82;0.60;;;;;20.90;100582.00;;;;5007862;28;20271;-76
2022/09/15 05:51:03;;;;;;;3.95;0.90;;;;;20.90;100597.00;;;;5009692;28;20197;-76
2022/09/15 05:53:31;;;;;;;1.45;0.85;;;;;20.90;100595.00;;;;5012809;28;20228;-78
2022/09/15 05:56:02;;;;;;;1.85;0.90;;;;;20.90;100600.00;;;;5005698;28;20221;-76
2022/09/15 05:58:32;;;;;;;1.20;0.60;;;;;20.90;100594.00;;;;5008914;28;20300;-77
2022/09/15 06:01:06;;;;;;;1.83;0.73;;;;;20.90;100589.00;;;;5005568;28;20205;-76
2022/09/15 06:03:34;;;;;;;2.63;0.75;;;;;21.00;100602.00;;;;5006933;28;20205;-75
2022/09/15 06:06:03;;;;;;;2.17;0.60;;;;;21.00;100606.00;;;;5005240;28;20935;-76
2022/09/15 06:08:34;;;;;;;0.93;0.32;;;;;21.00;100604.00;;;;5003486;28;20291;-76
2022/09/15 06:11:06;;;;;;;0.75;0.43;;;;;21.00;100606.00;;;;5008172;28;20201;-76
2022/09/15 06:13:35;;;;;;;1.80;0.40;;;;;21.00;100610.00;;;;5004872;28;20891;-76
2022/09/15 06:16:05;;;;;;;2.00;0.40;;;;;21.00;100609.00;;;;5011859;28;20201;-76
2022/09/15 06:18:33;;;;;;;2.63;0.60;;;;;21.10;100611.00;;;;5009271;28;20201;-76
2022/09/15 06:21:05;;;;;;;0.63;0.30;;;;;21.10;100620.00;;;;5010103;28;20676;-76
2022/09/15 06:23:32;;;;;;;1.17;0.50;;;;;21.10;100630.00;;;;5008642;28;20215;-76
2022/09/15 06:26:08;;;;;;;3.42;0.60;;;;;21.10;100616.00;;;;4999882;28;20193;-76
2022/09/15 06:28:37;;;;;;;1.60;0.73;;;;;21.20;100624.00;;;;4999189;28;20196;-76
2022/09/15 06:31:10;;;;;;;0.93;0.55;;;;;21.20;100627.00;;;;5006122;28;20193;-76
2022/09/15 06:33:37;;;;;;;1.02;0.60;;;;;21.20;100634.00;;;;5018455;28;20706;-76
2022/09/15 06:36:06;;;;;;;2.58;0.70;;;;;21.30;100635.00;;;;5008764;28;20193;-77
2022/09/15 06:38:33;;;;;;;1.65;0.40;;;;;21.30;100640.00;;;;5009485;28;20196;-76
2022/09/15 06:41:00;;;;;;;2.53;0.70;;;;;21.30;100633.00;;;;5008315;28;20204;-76
2022/09/15 06:43:30;;;;;;;1.48;0.60;;;;;21.30;100640.00;;;;5008678;28;20208;-75
2022/09/15 06:46:04;;;;;;;2.10;0.65;;;;;21.30;100643.00;;;;5004063;28;20197;-77
2022/09/15 06:48:32;;;;;;;2.33;0.50;;;;;21.40;100644.00;;;;4999817;28;20392;-76
2022/09/15 06:51:00;;;;;;;3.65;0.50;;;;;21.40;100652.00;;;;4987681;28;20197;-76
2022/09/15 06:53:29;;;;;;;1.70;0.57;;;;;21.40;100653.00;;;;5005148;28;20235;-76
2022/09/15 06:56:01;;;;;;;1.75;0.65;;;;;21.50;100647.00;;;;5005146;28;20264;-76
2022/09/15 06:58:28;;;;;;;1.55;0.60;;;;;21.50;100652.00;;;;5006360;28;20853;-76
2022/09/15 07:01:00;;;;;;;1.38;0.40;;;;;21.50;100644.00;;;;5008063;28;20733;-76
2022/09/15 07:03:28;;;;;;;0.43;0.28;;;;;21.50;100649.00;;;;5002224;28;20197;-76
2022/09/15 07:05:56;;;;;;;2.97;0.80;;;;;21.60;100653.00;;;;4996612;28;20224;-76
2022/09/15 07:08:23;;;;;;;3.53;1.00;;;;;21.60;100658.00;;;;5002989;28;20651;-76
2022/09/15 07:10:51;;;;;;;3.45;0.60;;;;;21.70;100663.00;;;;5005502;28;20193;-75
2022/09/15 07:13:18;;;;;;;13.13;1.17;;;;;21.70;100667.00;;;;5002197;28;20307;-75
2022/09/15 07:15:51;;;;;;;2.63;0.50;;;;;21.70;100664.00;;;;5002173;28;20197;-75
2022/09/15 07:18:18;;;;;;;2.78;0.50;;;;;21.80;100662.00;;;;5002100;28;20721;-75
2022/09/15 07:20:47;;;;;;;3.67;0.50;;;;;21.80;100671.00;;;;5006257;28;20204;-77
2022/09/15 07:23:16;;;;;;;2.00;0.82;;;;;21.90;100672.00;;;;5008243;28;20204;-77
2022/09/15 07:25:44;;;;;;;2.17;0.70;;;;;21.90;100676.00;;;;5004944;28;20666;-77
2022/09/15 07:28:11;;;;;;;3.95;0.75;;;;;22.00;100671.00;;;;4998200;28;20212;-77
2022/09/15 07:30:39;;;;;;;2.90;1.05;;;;;22.00;100671.00;;;;5003284;28;20200;-76
2022/09/15 07:33:06;;;;;;;0.95;0.30;;;;;22.00;100675.00;;;;5005812;28;20256;-76
2022/09/15 07:35:33;;;;;;;2.95;0.70;;;;;22.10;100678.00;;;;5003387;28;20197;-77
2022/09/15 07:38:02;;;;;;;1.73;0.52;;;;;22.10;100699.00;;;;5002215;28;20197;-77
2022/09/15 07:40:30;;;;;;;3.03;0.70;;;;;22.10;100702.00;;;;5003817;28;20201;-77
2022/09/15 07:42:58;;;;;;;2.25;0.40;;;;;22.10;100700.00;;;;5002116;28;20220;-77
2022/09/15 07:45:25;;;;;;;4.22;0.73;;;;;22.10;100705.00;;;;5001364;28;20288;-76
2022/09/15 07:47:52;;;;;;;1.48;0.40;;;;;22.20;100711.00;;;;5001011;28;20201;-78
2022/09/15 07:50:19;;;;;;;3.08;0.47;;;;;22.20;100704.00;;;;5006389;28;20196;-76
2022/09/15 07:52:47;;;;;;;4.32;0.70;;;;;22.20;100709.00;;;;5026835;28;20216;-77
2022/09/15 07:55:17;;;;;;;1.58;0.45;;;;;22.20;100713.00;;;;5001854;28;20193;-76
2022/09/15 07:57:44;;;;;;;3.10;0.47;;;;;22.30;100718.00;;;;5002508;28;20267;-76
2022/09/15 08:00:14;;;;;;;2.28;0.50;;;;;22.30;100715.00;;;;5003865;28;20192;-76
2022/09/15 08:02:41;;;;;;;2.70;1.42;;;;;22.30;100711.00;;;;5006545;28;20251;-77
2022/09/15 08:05:08;;;;;;;1.33;0.80;;;;;22.40;100709.00;;;;5005742;28;20623;-77
2022/09/15 08:07:36;;;;;;;2.00;0.40;;;;;22.40;100714.00;;;;5005418;28;20202;-76
2022/09/15 08:10:03;;;;;;;2.70;0.47;;;;;22.40;100715.00;;;;5006034;28;20204;-76
2022/09/15 08:12:32;;;;;;;3.63;0.85;;;;;22.40;100726.00;;;;5004601;28;20778;-77
2022/09/15 08:14:59;;;;;;;2.78;0.43;;;;;22.50;100731.00;;;;5000761;28;20224;-77
2022/09/15 08:17:27;;;;;;;2.30;0.40;;;;;22.50;100726.00;;;;5007105;28;20189;-77
2022/09/15 08:19:54;;;;;;;2.08;0.40;;;;;22.50;100725.00;;;;5005105;28;20224;-77
2022/09/15 08:22:21;;;;;;;1.60;0.32;;;;;22.60;100727.00;;;;5005648;28;20568;-77
2022/09/15 08:24:49;;;;;;;2.90;0.80;;;;;22.60;100722.00;;;;5003700;28;20220;-76
2022/09/15 08:27:16;;;;;;;1.10;0.50;;;;;22.60;100724.00;;;;5006450;28;20233;-76
2022/09/15 08:29:45;;;;;;;2.22;0.30;;;;;22.60;100729.00;;;;5008677;28;20730;-77
2022/09/15 08:32:12;;;;;;;1.48;0.30;;;;;22.70;100734.00;;;;5011131;28;20228;-76
2022/09/15 08:34:40;;;;;;;3.55;0.63;;;;;22.70;100743.00;;;;5006673;28;20231;-77
2022/09/15 08:37:07;;;;;;;1.33;0.70;;;;;22.80;100744.00;;;;5009465;28;20208;-77
2022/09/15 08:39:34;;;;;;;1.63;0.68;;;;;22.80;100751.00;;;;5007889;28;20209;-76
2022/09/15 08:42:02;;;;;;;2.78;0.70;;;;;22.80;100751.00;;;;5008982;28;20590;-80
2022/09/15 08:44:38;;;;;;;1.63;0.30;;;;;22.80;100749.00;;;;5006392;28;20292;-78
2022/09/15 08:47:13;;;;;;;2.72;0.55;;;;;22.80;100760.00;;;;5006906;28;20203;-77
2022/09/15 08:49:44;;;;;;;1.23;0.28;;;;;22.90;100755.00;;;;5009475;28;20227;-79
2022/09/15 08:52:18;;;;;;;0.88;0.35;;;;;22.90;100757.00;;;;5005501;28;20208;-77
2022/09/15 08:54:45;;;;;;;0.17;0.13;;;;;22.90;100769.00;;;;5005603;28;20229;-79
2022/09/15 08:57:18;;;;;;;2.72;0.35;;;;;22.90;100771.00;;;;5007859;28;20236;-77
2022/09/15 08:59:46;;;;;;;5.43;0.65;;;;;22.90;100772.00;;;;5010216;28;20196;-78
2022/09/15 09:02:43;;;;;;;4.00;0.30;;;;;22.80;100776.00;;;;5003972;28;20200;-78
2022/09/15 09:05:23;;;;;;;2.53;0.30;;;;;22.80;100787.00;;;;5006353;28;20296;-77
2022/09/15 09:08:16;;;;;;;3.90;0.60;;;;;22.80;100789.00;;;;5003899;28;20840;-78
2022/09/15 09:10:52;;;;;;;3.20;0.68;;;;;22.80;100797.00;;;;4998719;28;20197;-78
2022/09/15 09:13:29;;;;;;;1.80;0.35;;;;;22.80;100803.00;;;;5005928;28;20292;-77
2022/09/15 09:16:11;;;;;;;3.85;0.70;;;;;22.70;100805.00;;;;5001201;28;20229;-77
2022/09/15 09:19:05;;;;;;;0.60;0.30;;;;;22.70;100797.00;;;;5008508;28;20193;-77
2022/09/15 09:21:35;;;;;;;2.38;0.40;;;;;22.70;100791.00;;;;5008082;28;20203;-77
2022/09/15 09:24:06;;;;;;;1.45;0.30;;;;;22.70;100788.00;;;;5005585;28;20201;-77
2022/09/15 09:26:36;;;;;;;3.28;0.60;;;;;22.80;100785.00;;;;5003840;28;20205;-77
2022/09/15 09:29:12;;;;;;;0.70;0.45;;;;;22.70;100791.00;;;;4995660;28;20228;-76
2022/09/15 09:31:41;;;;;;;0.65;0.30;;;;;22.80;100783.00;;;;5010132;28;20258;-76
2022/09/15 09:34:20;;;;;;;0.88;0.38;;;;;22.80;100779.00;;;;5005417;28;20224;-76
2022/09/15 09:36:53;;;;;;;2.15;0.40;;;;;22.80;100780.00;;;;5005945;28;20197;-76
2022/09/15 09:39:21;;;;;;;1.25;0.20;;;;;22.90;100775.00;;;;5008780;28;20216;-76
2022/09/15 09:41:49;;;;;;;0.45;0.15;;;;;23.00;100773.00;;;;5003889;28;20215;-76
2022/09/15 09:44:18;;;;;;;2.03;0.32;;;;;23.10;100773.00;;;;5007130;28;20671;-76
2022/09/15 09:46:46;;;;;;;1.15;0.20;;;;;23.20;100769.00;;;;5003023;28;20685;-76
2022/09/15 09:49:21;;;;;;;1.30;0.30;;;;;23.20;100772.00;;;;5007812;28;20201;-76
2022/09/15 09:51:51;;;;;;;1.20;0.20;;;;;23.30;100779.00;;;;5006884;28;20266;-76
2022/09/15 09:54:23;;;;;;;1.45;0.28;;;;;23.30;100779.00;;;;5001025;28;20221;-76
2022/09/15 09:56:52;;;;;;;3.00;0.40;;;;;23.30;100787.00;;;;5005761;28;20304;-76
2022/09/15 09:59:42;;;;;;;1.25;0.30;;;;;23.30;100786.00;;;;5008290;28;20207;-76
2022/09/15 10:02:16;;;;;;;1.05;0.30;;;;;23.30;100776.00;;;;5008053;28;21068;-76
2022/09/15 10:04:45;;;;;;;2.20;0.32;;;;;23.40;100770.00;;;;5007868;28;20208;-76
2022/09/15 10:07:15;;;;;;;0.65;0.25;;;;;23.40;100772.00;;;;5004794;28;20214;-77
2022/09/15 10:09:59;;;;;;;1.00;0.30;;;;;23.40;100769.00;;;;5004985;28;20830;-76
2022/09/15 10:12:31;;;;;;;0.50;0.17;;;;;23.50;100771.00;;;;5003661;28;20192;-76
2022/09/15 10:15:01;;;;;;;2.38;0.32;;;;;23.50;100762.00;;;;5012579;28;20220;-76
2022/09/15 10:17:41;;;;;;;1.00;0.40;;;;;23.50;100762.00;;;;5008249;28;20243;-76
2022/09/15 10:20:27;;;;;;;1.80;0.47;;;;;23.50;100760.00;;;;5006800;28;20196;-77
2022/09/15 10:23:02;;;;;;;1.88;0.60;;;;;23.60;100762.00;;;;5008671;28;20204;-75
2022/09/15 10:25:33;;;;;;;0.85;0.55;;;;;23.70;100766.00;;;;5007935;28;20208;-76
2022/09/15 10:28:11;;;;;;;2.85;0.50;;;;;23.60;100749.00;;;;5004915;28;20189;-78
2022/09/15 10:30:39;;;;;;;2.45;0.50;;;;;23.70;100755.00;;;;5006744;28;20205;-76
2022/09/15 10:33:23;;;;;;;2.90;0.35;;;;;23.70;100748.00;;;;5004732;28;20200;-76
2022/09/15 10:35:53;;;;;;;1.77;0.43;;;;;23.80;100752.00;;;;5010466;28;20193;-77
2022/09/15 10:38:31;;;;;;;1.65;0.70;;;;;23.80;100747.00;;;;5008705;28;20835;-79
2022/09/15 10:41:10;;;;;;;2.00;0.32;;;;;23.90;100741.00;;;;5004836;28;20197;-78
2022/09/15 10:43:46;;;;;;;2.03;0.30;;;;;23.90;100746.00;;;;4999130;28;20200;-78
2022/09/15 10:46:20;;;;;;;2.45;0.35;;;;;24.00;100747.00;;;;4999605;28;20250;-78
2022/09/15 10:49:01;;;;;;;3.63;0.70;;;;;24.00;100746.00;;;;5003362;28;20200;-78
2022/09/15 10:51:42;;;;;;;4.13;0.50;;;;;24.10;100745.00;;;;5007538;28;20818;-79
2022/09/15 10:54:32;;;;;;;1.90;0.75;;;;;24.10;100760.00;;;;4996828;28;21105;-79
2022/09/15 10:57:08;;;;;;;2.58;0.40;;;;;24.20;100753.00;;;;4994633;28;20244;-79
2022/09/15 10:59:45;;;;;;;4.22;0.35;;;;;24.30;100749.00;;;;5006730;28;20198;-78
2022/09/15 11:02:42;;;;;;;0.88;0.28;;;;;24.30;100760.00;;;;4996554;28;20212;-79
2022/09/15 11:05:26;;;;;;;1.00;0.20;;;;;24.30;100759.00;;;;5006177;28;20201;-79
2022/09/15 11:08:15;;;;;;;1.15;0.40;;;;;24.40;100739.00;;;;5002665;28;20204;-81
2022/09/15 11:10:51;;;;;;;2.95;0.70;;;;;24.50;100756.00;;;;5008436;28;20680;-80
2022/09/15 11:13:26;;;;;;;0.93;0.43;;;;;24.60;100748.00;;;;5003769;28;20216;-80
2022/09/15 11:16:03;;;;;;;2.55;0.65;;;;;24.60;100748.00;;;;5006149;28;20230;-79
2022/09/15 11:18:55;;;;;;;1.88;0.32;;;;;24.60;100754.00;;;;4997963;28;20201;-79
2022/09/15 11:21:29;;;;;;;4.00;0.60;;;;;24.60;100749.00;;;;5000151;28;20197;-78
2022/09/15 11:24:25;;;;;;;2.28;0.52;;;;;24.60;100743.00;;;;5001437;28;20886;-78
2022/09/15 11:26:57;;;;;;;1.52;0.60;;;;;24.70;100750.00;;;;5002896;28;20212;-78
2022/09/15 11:29:28;;;;;;;2.47;0.30;;;;;24.80;100746.00;;;;5004829;28;20613;-78
2022/09/15 11:32:02;;;;;;;2.47;0.40;;;;;24.80;100748.00;;;;5003297;28;20713;-78
2022/09/15 11:34:34;;;;;;;3.60;0.52;;;;;24.90;100762.00;;;;5004644;28;20312;-77
2022/09/15 11:37:08;;;;;;;1.73;0.40;;;;;24.90;100756.00;;;;5001141;28;20197;-78
2022/09/15 11:39:40;;;;;;;1.95;0.40;;;;;25.00;100753.00;;;;5000280;28;20329;-79
2022/09/15 11:42:11;;;;;;;2.13;0.38;;;;;25.00;100762.00;;;;5004070;28;20228;-78
2022/09/15 11:44:41;;;;;;;3.88;0.82;;;;;25.10;100752.00;;;;5004400;28;20208;-79
2022/09/15 11:47:26;;;;;;;2.72;0.40;;;;;25.10;100758.00;;;;5005831;28;20200;-79
2022/09/15 11:49:58;;;;;;;1.38;0.68;;;;;25.20;100760.00;;;;4998397;28;20201;-78
2022/09/15 11:52:42;;;;;;;1.55;0.52;;;;;25.20;100775.00;;;;5002084;28;20216;-78
2022/09/15 11:55:24;;;;;;;0.32;0.20;;;;;25.20;100761.00;;;;5004439;28;20229;-79
2022/09/15 11:58:01;;;;;;;0.93;0.30;;;;;25.30;100767.00;;;;5015613;28;20224;-78
2022/09/15 12:00:30;;;;;;;1.30;0.25;;;;;25.30;100747.00;;;;5004987;28;20685;-78
2022/09/15 12:03:14;;;;;;;1.08;0.45;;;;;25.30;100754.00;;;;5004443;28;20331;-79
2022/09/15 12:05:45;;;;;;;0.98;0.40;;;;;25.40;100749.00;;;;5004850;28;20201;-78
2022/09/15 12:08:18;;;;;;;1.27;0.47;;;;;25.50;100761.00;;;;5008488;28;20197;-77
2022/09/15 12:10:51;;;;;;;0.60;0.20;;;;;25.50;100743.00;;;;5004848;28;20208;-77
2022/09/15 12:13:21;;;;;;;3.30;0.40;;;;;25.60;100751.00;;;;5012216;28;20233;-77
2022/09/15 12:15:49;;;;;;;1.95;0.30;;;;;25.60;100739.00;;;;5019518;28;20221;-78
2022/09/15 12:18:24;;;;;;;1.65;0.30;;;;;25.70;100749.00;;;;5009498;28;20205;-78
2022/09/15 12:20:55;;;;;;;1.05;0.55;;;;;25.70;100746.00;;;;5009786;28;20199;-77
2022/09/15 12:23:29;;;;;;;0.30;0.20;;;;;25.80;100752.00;;;;5007022;28;20697;-78
2022/09/15 12:26:13;;;;;;;0.68;0.20;;;;;25.80;100753.00;;;;5002133;28;20300;-76
2022/09/15 12:28:53;;;;;;;2.63;0.90;;;;;25.90;100748.00;;;;4991710;28;20663;-77